Time;durP1;ratioP1;P1;durP2;ratioP2;P2;SDS_P1;SDS_P2;PMS_P1;PMS_P2;Temp;Humidity;BMP_temperature;BMP_pressure;BME280_temperature;BME280_humidity;BME280_pressure;Samples;Min_cycle;Max_cycle;Signal;HPM_P1;HPM_P2
2023/03/05 00:01:17;;;;;;;38.92;18.17;;;5.10;61.40;;;;;;5066953;28;20044;-63
2023/03/05 00:03:43;;;;;;;44.42;19.92;;;5.10;61.60;;;;;;5065662;28;20081;-62
2023/03/05 00:06:09;;;;;;;44.72;19.77;;;5.10;61.40;;;;;;5067255;28;20060;-62
2023/03/05 00:08:35;;;;;;;47.45;20.10;;;5.10;61.30;;;;;;5068848;28;20088;-61
2023/03/05 00:11:06;;;;;;;45.17;19.85;;;5.20;61.40;;;;;;5065187;28;20032;-63
2023/03/05 00:13:33;;;;;;;47.35;19.83;;;5.10;61.40;;;;;;5059118;28;20045;-63
2023/03/05 00:16:01;;;;;;;44.58;19.83;;;5.10;61.30;;;;;;5064369;28;20049;-62
2023/03/05 00:18:26;;;;;;;44.58;20.20;;;5.20;61.30;;;;;;5074567;28;20109;-63
2023/03/05 00:20:52;;;;;;;45.03;19.48;;;5.20;61.40;;;;;;5063825;28;20037;-62
2023/03/05 00:23:17;;;;;;;37.75;19.25;;;5.10;61.30;;;;;;5062041;28;20375;-61
2023/03/05 00:25:44;;;;;;;40.20;18.33;;;5.20;61.40;;;;;;5069678;28;20566;-62
2023/03/05 00:28:11;;;;;;;39.15;18.33;;;5.20;61.50;;;;;;5072468;28;20025;-61
2023/03/05 00:30:36;;;;;;;37.50;18.67;;;5.20;61.50;;;;;;5071073;28;20037;-61
2023/03/05 00:33:02;;;;;;;42.22;19.27;;;5.20;61.50;;;;;;5065699;28;20220;-63
2023/03/05 00:35:27;;;;;;;37.20;19.45;;;5.20;61.50;;;;;;5065774;28;20132;-63
2023/03/05 00:37:53;;;;;;;43.40;18.92;;;5.20;61.50;;;;;;5073972;28;20040;-63
2023/03/05 00:40:20;;;;;;;39.45;18.65;;;5.20;61.40;;;;;;4999528;28;20049;-63
2023/03/05 00:42:46;;;;;;;38.58;18.52;;;5.30;61.50;;;;;;5059002;28;20030;-63
2023/03/05 00:45:12;;;;;;;43.33;18.55;;;5.30;61.50;;;;;;5065962;28;20042;-62
2023/03/05 00:47:38;;;;;;;39.88;18.63;;;5.20;61.40;;;;;;5071868;28;20025;-63
2023/03/05 00:50:06;;;;;;;39.08;17.63;;;5.30;61.50;;;;;;5062905;28;20333;-63
2023/03/05 00:52:32;;;;;;;42.80;18.25;;;5.30;61.50;;;;;;5058926;28;20044;-62
2023/03/05 00:54:57;;;;;;;42.90;17.50;;;5.30;61.50;;;;;;5068835;28;20552;-63
2023/03/05 00:57:23;;;;;;;41.30;18.90;;;5.30;61.50;;;;;;5062732;28;20058;-63
2023/03/05 00:59:49;;;;;;;41.70;17.95;;;5.30;61.50;;;;;;5070415;28;20036;-63
2023/03/05 01:02:14;;;;;;;44.42;18.17;;;5.30;61.60;;;;;;5072856;28;20020;-63
2023/03/05 01:04:40;;;;;;;36.33;16.75;;;5.30;61.60;;;;;;5069062;28;20029;-63
2023/03/05 01:07:06;;;;;;;41.60;18.42;;;5.30;61.50;;;;;;5064699;28;20059;-63
2023/03/05 01:09:31;;;;;;;39.47;17.35;;;5.30;62.20;;;;;;5059416;28;20056;-64
2023/03/05 01:11:58;;;;;;;36.05;16.23;;;5.30;61.40;;;;;;5064377;28;20066;-62
2023/03/05 01:14:26;;;;;;;35.53;16.52;;;5.30;61.40;;;;;;5070716;28;20021;-62
2023/03/05 01:16:52;;;;;;;35.85;15.48;;;5.30;61.50;;;;;;5062511;28;20075;-61
2023/03/05 01:19:19;;;;;;;38.78;16.30;;;5.30;61.50;;;;;;5067748;28;20379;-62
2023/03/05 01:21:45;;;;;;;35.33;16.35;;;5.30;61.50;;;;;;5065461;28;20565;-62
2023/03/05 01:24:11;;;;;;;32.45;16.08;;;5.30;61.50;;;;;;5055791;28;20033;-62
2023/03/05 01:26:37;;;;;;;37.45;16.70;;;5.30;61.60;;;;;;5068004;28;20037;-62
2023/03/05 01:29:03;;;;;;;33.67;16.85;;;5.30;61.50;;;;;;5063616;28;20023;-62
2023/03/05 01:31:29;;;;;;;35.47;16.58;;;5.30;61.60;;;;;;5068654;28;20025;-61
2023/03/05 01:33:54;;;;;;;34.38;15.93;;;5.30;62.40;;;;;;5061923;28;20041;-62
2023/03/05 01:36:23;;;;;;;34.25;15.75;;;5.30;61.60;;;;;;5070089;28;20076;-61
2023/03/05 01:38:50;;;;;;;34.65;15.65;;;5.30;61.70;;;;;;5065900;28;20033;-63
2023/03/05 01:41:18;;;;;;;35.85;16.17;;;5.30;61.70;;;;;;5059775;28;20032;-63
2023/03/05 01:43:44;;;;;;;33.10;16.20;;;5.30;61.70;;;;;;5060862;28;20036;-63
2023/03/05 01:46:28;;;;;;;39.20;16.13;;;5.30;61.80;;;;;;5076509;28;20028;-61
2023/03/05 01:49:14;;;;;;;22.75;11.40;;;5.30;62.10;;;;;;5061274;28;20055;-62
2023/03/05 01:51:47;;;;;;;32.35;15.50;;;5.30;62.00;;;;;;5058100;28;20029;-62
2023/03/05 01:54:16;;;;;;;32.40;14.93;;;5.40;61.80;;;;;;5055924;28;20036;-62
2023/03/05 01:56:43;;;;;;;37.00;15.38;;;5.40;61.80;;;;;;5069967;28;20040;-62
2023/03/05 01:59:11;;;;;;;33.25;15.98;;;5.30;61.80;;;;;;5062874;28;20107;-61
2023/03/05 02:01:43;;;;;;;33.67;15.52;;;5.40;62.60;;;;;;5052867;28;20063;-62
2023/03/05 02:04:11;;;;;;;32.88;15.48;;;5.40;62.00;;;;;;5062759;28;20459;-63
2023/03/05 02:06:39;;;;;;;34.25;14.98;;;5.40;61.80;;;;;;5065933;28;20029;-62
2023/03/05 02:09:05;;;;;;;34.42;15.57;;;5.40;61.90;;;;;;5066410;28;20103;-61
2023/03/05 02:11:31;;;;;;;34.30;15.07;;;5.40;61.90;;;;;;5068744;28;20035;-63
2023/03/05 02:13:57;;;;;;;34.05;14.57;;;5.40;61.90;;;;;;5068210;28;20042;-61
2023/03/05 02:16:23;;;;;;;30.13;14.00;;;5.40;61.90;;;;;;5061501;28;20036;-62
2023/03/05 02:18:49;;;;;;;28.60;14.13;;;5.40;61.90;;;;;;5054957;28;20029;-61
2023/03/05 02:21:27;;;;;;;32.67;14.75;;;5.40;61.90;;;;;;5063884;28;20078;-64
2023/03/05 02:23:53;;;;;;;27.70;14.70;;;5.40;62.00;;;;;;5063486;28;20020;-63
2023/03/05 02:26:18;;;;;;;33.45;15.20;;;5.40;61.80;;;;;;5055370;28;20024;-62
2023/03/05 02:28:55;;;;;;;35.17;15.02;;;5.40;61.90;;;;;;5061561;28;20550;-63
2023/03/05 02:31:23;;;;;;;33.35;14.63;;;5.40;61.90;;;;;;5053992;28;20041;-62
2023/03/05 02:33:49;;;;;;;36.53;15.73;;;5.40;61.80;;;;;;5064124;28;20043;-63
2023/03/05 02:36:15;;;;;;;33.80;14.90;;;5.40;62.50;;;;;;5064324;28;20047;-61
2023/03/05 02:38:44;;;;;;;29.10;14.05;;;5.40;61.80;;;;;;5061429;28;20108;-61
2023/03/05 02:41:09;;;;;;;31.95;15.20;;;5.40;61.80;;;;;;4985381;28;20032;-62
2023/03/05 02:43:35;;;;;;;38.33;14.93;;;5.40;61.90;;;;;;5061222;28;20036;-62
2023/03/05 02:46:01;;;;;;;32.65;15.10;;;5.40;61.90;;;;;;5059003;28;20075;-62
2023/03/05 02:48:27;;;;;;;32.40;14.05;;;5.40;61.90;;;;;;5057569;28;20032;-63
2023/03/05 02:50:53;;;;;;;31.67;14.82;;;5.40;61.90;;;;;;5059105;28;20025;-62
2023/03/05 02:53:19;;;;;;;32.08;15.07;;;5.40;62.00;;;;;;5066180;28;20037;-62
2023/03/05 02:55:48;;;;;;;31.75;14.70;;;5.40;62.10;;;;;;5064650;28;20063;-63
2023/03/05 02:58:15;;;;;;;29.55;13.98;;;5.40;62.00;;;;;;5058634;28;20021;-62
2023/03/05 03:00:42;;;;;;;32.08;14.48;;;5.40;61.90;;;;;;5059526;28;20052;-62
2023/03/05 03:03:07;;;;;;;36.92;16.08;;;5.40;61.90;;;;;;5067784;28;20475;-61
2023/03/05 03:05:35;;;;;;;35.03;14.23;;;5.50;62.00;;;;;;5060238;28;20040;-62
2023/03/05 03:08:01;;;;;;;30.38;15.30;;;5.40;62.10;;;;;;5064568;28;20025;-64
2023/03/05 03:10:26;;;;;;;32.30;15.20;;;5.50;62.00;;;;;;5077181;28;20055;-62
2023/03/05 03:12:52;;;;;;;33.10;14.85;;;5.40;61.90;;;;;;5062585;28;20044;-61
2023/03/05 03:15:18;;;;;;;34.10;14.82;;;5.40;62.10;;;;;;5076221;28;20080;-62
2023/03/05 03:17:44;;;;;;;29.98;14.30;;;5.40;62.30;;;;;;5074287;28;20040;-61
2023/03/05 03:20:12;;;;;;;32.85;15.15;;;5.40;62.40;;;;;;5067136;28;20425;-63
2023/03/05 03:22:39;;;;;;;32.70;14.77;;;5.40;62.50;;;;;;5069234;28;20085;-62
2023/03/05 03:25:06;;;;;;;35.97;15.10;;;5.40;62.70;;;;;;5064887;28;20032;-65
2023/03/05 03:27:32;;;;;;;39.15;15.95;;;5.40;62.70;;;;;;5066810;28;20028;-63
2023/03/05 03:30:01;;;;;;;32.65;15.35;;;5.40;62.90;;;;;;5060169;28;20036;-64
2023/03/05 03:32:28;;;;;;;36.50;15.82;;;5.30;62.50;;;;;;5053922;28;20112;-63
2023/03/05 03:34:53;;;;;;;39.88;16.05;;;5.30;62.50;;;;;;5064551;28;20100;-63
2023/03/05 03:37:19;;;;;;;33.00;15.82;;;5.30;62.90;;;;;;5054828;28;20028;-62
2023/03/05 03:39:45;;;;;;;41.03;16.90;;;5.30;62.80;;;;;;5071220;28;20013;-64
2023/03/05 03:42:10;;;;;;;37.53;16.38;;;5.30;63.10;;;;;;5062935;28;20025;-62
2023/03/05 03:44:36;;;;;;;39.30;17.30;;;5.20;63.20;;;;;;5059093;28;20029;-62
2023/03/05 03:47:02;;;;;;;32.63;14.75;;;5.20;63.40;;;;;;5065903;28;20099;-63
2023/03/05 03:49:27;;;;;;;38.35;16.63;;;5.20;63.40;;;;;;5058300;28;20021;-62
2023/03/05 03:51:54;;;;;;;41.38;16.88;;;5.20;63.30;;;;;;5061327;28;20029;-61
2023/03/05 03:54:21;;;;;;;29.80;14.57;;;5.20;63.40;;;;;;5059214;28;20044;-62
2023/03/05 03:56:46;;;;;;;41.13;17.70;;;5.20;63.40;;;;;;5058951;28;20505;-61
2023/03/05 03:59:12;;;;;;;40.72;17.58;;;5.30;63.00;;;;;;5069969;28;20028;-64
2023/03/05 04:01:38;;;;;;;35.00;15.63;;;5.20;63.00;;;;;;5057880;28;20036;-63
2023/03/05 04:04:05;;;;;;;37.60;18.02;;;5.20;62.90;;;;;;5062640;28;20052;-62
2023/03/05 04:06:31;;;;;;;38.50;17.17;;;5.20;62.80;;;;;;5066072;28;20033;-64
2023/03/05 04:08:57;;;;;;;39.83;16.08;;;5.20;62.80;;;;;;5064045;28;20021;-63
2023/03/05 04:11:23;;;;;;;38.60;15.38;;;5.20;63.00;;;;;;5066578;28;20063;-64
2023/03/05 04:13:49;;;;;;;41.95;18.25;;;5.10;63.20;;;;;;5061255;28;20037;-63
2023/03/05 04:16:15;;;;;;;34.20;16.42;;;5.10;63.50;;;;;;5064056;28;20029;-62
2023/03/05 04:18:41;;;;;;;38.97;16.20;;;5.10;63.40;;;;;;5066245;28;20064;-62
2023/03/05 04:21:07;;;;;;;34.97;16.15;;;5.10;63.60;;;;;;5056765;28;20028;-62
2023/03/05 04:23:33;;;;;;;41.55;17.83;;;5.00;63.60;;;;;;5068918;28;20065;-62
2023/03/05 04:25:59;;;;;;;40.60;16.88;;;5.10;63.80;;;;;;5062203;28;20027;-61
2023/03/05 04:28:25;;;;;;;38.75;16.38;;;5.10;63.90;;;;;;5065022;28;20028;-63
2023/03/05 04:30:51;;;;;;;38.40;17.30;;;5.10;63.90;;;;;;5063675;28;21106;-62
2023/03/05 04:33:17;;;;;;;37.70;17.27;;;5.10;63.80;;;;;;5064956;28;20077;-62
2023/03/05 04:35:43;;;;;;;44.65;17.38;;;5.10;63.90;;;;;;5058992;28;20036;-64
2023/03/05 04:38:09;;;;;;;39.08;16.70;;;5.20;63.90;;;;;;5070619;28;20031;-63
2023/03/05 04:40:36;;;;;;;40.42;18.08;;;5.20;63.80;;;;;;5062665;28;20056;-64
2023/03/05 04:43:03;;;;;;;40.75;17.85;;;5.20;63.70;;;;;;5055294;28;20460;-62
2023/03/05 04:45:29;;;;;;;39.72;17.65;;;5.20;63.70;;;;;;5063451;28;20502;-62
2023/03/05 04:47:54;;;;;;;40.90;17.52;;;5.20;63.70;;;;;;5065509;28;20021;-63
2023/03/05 04:50:20;;;;;;;39.45;17.02;;;5.20;63.70;;;;;;5053386;28;20025;-62
2023/03/05 04:52:46;;;;;;;43.67;17.60;;;5.30;63.80;;;;;;5064497;28;20110;-63
2023/03/05 04:55:13;;;;;;;38.90;18.15;;;5.30;63.80;;;;;;5075755;28;20110;-63
2023/03/05 04:57:39;;;;;;;43.45;18.77;;;5.30;63.80;;;;;;5072744;28;20147;-63
2023/03/05 05:00:13;;;;;;;38.20;17.70;;;5.30;63.80;;;;;;5060062;28;20025;-62
2023/03/05 05:02:40;;;;;;;46.42;17.85;;;5.30;63.90;;;;;;5073389;28;20025;-61
2023/03/05 05:05:07;;;;;;;42.28;17.10;;;5.30;63.70;;;;;;5062351;28;20009;-62
2023/03/05 05:07:32;;;;;;;42.10;17.48;;;5.30;63.60;;;;;;5059915;28;20045;-62
2023/03/05 05:09:58;;;;;;;43.83;18.42;;;5.30;63.40;;;;;;5058488;28;20124;-62
2023/03/05 05:12:28;;;;;;;42.88;17.92;;;5.30;63.50;;;;;;5054503;28;20074;-62
2023/03/05 05:14:53;;;;;;;39.40;17.00;;;5.30;63.60;;;;;;5066079;28;20076;-61
2023/03/05 05:17:19;;;;;;;43.63;18.33;;;5.30;63.60;;;;;;5064783;28;20047;-63
2023/03/05 05:19:45;;;;;;;39.63;17.75;;;5.30;63.70;;;;;;5059771;28;20043;-61
2023/03/05 05:22:10;;;;;;;41.55;18.08;;;5.30;63.70;;;;;;5055065;28;20017;-61
2023/03/05 05:24:36;;;;;;;42.60;18.70;;;5.30;63.70;;;;;;5070817;28;20028;-63
2023/03/05 05:27:01;;;;;;;45.88;19.65;;;5.30;63.80;;;;;;5061171;28;20043;-62
2023/03/05 05:29:27;;;;;;;41.78;17.20;;;5.40;63.80;;;;;;5058718;28;20487;-62
2023/03/05 05:31:53;;;;;;;41.30;17.85;;;5.40;63.80;;;;;;5063726;28;20045;-62
2023/03/05 05:34:18;;;;;;;38.83;17.63;;;5.30;63.70;;;;;;5063960;28;20039;-62
2023/03/05 05:36:44;;;;;;;41.00;17.38;;;5.40;63.90;;;;;;5060450;28;20032;-63
2023/03/05 05:39:10;;;;;;;37.08;16.35;;;5.40;63.90;;;;;;5070143;28;20511;-63
2023/03/05 05:41:35;;;;;;;42.63;18.20;;;5.40;64.10;;;;;;5066717;28;20460;-63
2023/03/05 05:44:01;;;;;;;42.65;17.23;;;5.40;63.90;;;;;;5061069;28;20029;-62
2023/03/05 05:46:27;;;;;;;41.45;17.80;;;5.40;63.90;;;;;;5065152;28;20059;-62
2023/03/05 05:48:53;;;;;;;40.78;17.73;;;5.30;63.80;;;;;;5064067;28;20021;-62
2023/03/05 05:51:22;;;;;;;39.80;17.85;;;5.30;63.80;;;;;;5065397;28;20381;-62
2023/03/05 05:53:48;;;;;;;44.80;17.63;;;5.30;63.80;;;;;;5068568;28;20043;-62
2023/03/05 05:56:18;;;;;;;45.05;19.10;;;5.30;63.80;;;;;;5057903;28;20025;-62
2023/03/05 05:58:46;;;;;;;37.50;16.55;;;5.30;63.90;;;;;;5062426;28;20029;-62
2023/03/05 06:01:18;;;;;;;38.65;16.88;;;5.30;63.90;;;;;;5065818;28;20043;-61
2023/03/05 06:03:44;;;;;;;43.70;17.42;;;5.30;64.10;;;;;;5062548;28;20029;-63
2023/03/05 06:06:12;;;;;;;42.40;17.75;;;5.30;64.00;;;;;;5067674;28;20091;-62
2023/03/05 06:08:38;;;;;;;43.05;17.38;;;5.20;64.70;;;;;;5059866;28;20055;-63
2023/03/05 06:11:04;;;;;;;48.80;17.83;;;5.20;64.00;;;;;;5071381;28;20021;-62
2023/03/05 06:13:30;;;;;;;38.63;16.98;;;5.30;64.10;;;;;;5066016;28;20036;-62
2023/03/05 06:16:03;;;;;;;40.58;16.95;;;5.30;64.10;;;;;;5061758;28;20036;-61
2023/03/05 06:18:29;;;;;;;39.67;17.15;;;5.20;64.10;;;;;;5056780;28;20028;-63
2023/03/05 06:21:01;;;;;;;43.20;18.73;;;5.30;63.80;;;;;;5063470;28;20029;-61
2023/03/05 06:23:27;;;;;;;39.95;17.98;;;5.30;63.60;;;;;;5064581;28;20047;-62
2023/03/05 06:25:53;;;;;;;53.25;18.65;;;5.30;63.40;;;;;;5062662;28;20028;-62
2023/03/05 06:28:20;;;;;;;46.25;18.85;;;5.20;63.30;;;;;;5061058;28;20380;-63
2023/03/05 06:30:46;;;;;;;48.30;22.10;;;5.20;63.30;;;;;;5063088;28;20013;-62
2023/03/05 06:33:11;;;;;;;53.95;19.92;;;5.20;63.60;;;;;;5062482;28;20051;-62
2023/03/05 06:35:41;;;;;;;41.83;18.35;;;5.10;63.50;;;;;;5057097;28;20036;-62
2023/03/05 06:38:08;;;;;;;47.15;18.98;;;5.10;63.70;;;;;;5059066;28;20108;-63
2023/03/05 06:40:34;;;;;;;46.42;18.48;;;5.00;63.60;;;;;;5063719;28;20059;-61
2023/03/05 06:43:00;;;;;;;42.65;18.67;;;5.00;63.70;;;;;;5058335;28;20024;-62
2023/03/05 06:45:26;;;;;;;43.47;18.98;;;5.00;64.00;;;;;;5059447;28;20037;-61
2023/03/05 06:47:51;;;;;;;45.70;18.90;;;5.20;64.10;;;;;;5063872;28;20024;-61
2023/03/05 06:50:17;;;;;;;45.53;18.88;;;5.00;64.20;;;;;;5057568;28;20044;-61
2023/03/05 06:52:43;;;;;;;48.00;18.73;;;4.90;64.20;;;;;;5056062;28;20048;-61
2023/03/05 06:55:09;;;;;;;47.58;18.95;;;4.90;64.30;;;;;;5073057;28;20055;-61
2023/03/05 06:57:35;;;;;;;57.25;20.45;;;4.90;64.40;;;;;;5056457;28;20029;-63
2023/03/05 07:00:06;;;;;;;47.90;17.88;;;4.90;64.30;;;;;;5062724;28;20021;-61
2023/03/05 07:02:32;;;;;;;50.47;18.65;;;4.90;64.30;;;;;;5064593;28;20498;-61
2023/03/05 07:04:58;;;;;;;49.10;20.27;;;4.90;64.20;;;;;;5065183;28;20017;-61
2023/03/05 07:07:23;;;;;;;52.13;19.30;;;4.90;64.30;;;;;;5067273;28;20039;-61
2023/03/05 07:09:51;;;;;;;49.53;18.77;;;4.90;64.40;;;;;;5064488;28;20087;-63
2023/03/05 07:12:17;;;;;;;49.30;20.17;;;4.90;64.60;;;;;;5063020;28;20029;-63
2023/03/05 07:14:43;;;;;;;57.58;20.75;;;4.90;64.80;;;;;;5062677;28;20096;-61
2023/03/05 07:17:08;;;;;;;56.63;20.63;;;4.90;65.00;;;;;;5069126;28;20021;-61
2023/03/05 07:19:34;;;;;;;54.38;20.95;;;4.90;64.90;;;;;;5063800;28;20044;-63
2023/03/05 07:22:00;;;;;;;52.85;20.85;;;4.90;64.60;;;;;;5063056;28;20029;-61
2023/03/05 07:24:28;;;;;;;51.70;18.80;;;5.00;65.40;;;;;;5066693;28;20032;-62
2023/03/05 07:26:56;;;;;;;55.85;21.17;;;5.00;64.90;;;;;;5063023;28;20029;-62
2023/03/05 07:29:22;;;;;;;53.05;20.55;;;5.00;64.70;;;;;;5064565;28;20032;-62
2023/03/05 07:31:48;;;;;;;52.45;20.65;;;5.00;64.90;;;;;;5054980;28;20036;-63
2023/03/05 07:34:14;;;;;;;57.78;23.38;;;5.00;65.00;;;;;;5073289;28;20119;-61
2023/03/05 07:36:41;;;;;;;54.65;20.88;;;5.00;64.90;;;;;;5068138;28;20024;-62
2023/03/05 07:39:07;;;;;;;53.58;22.55;;;5.00;65.30;;;;;;5068995;28;20028;-62
2023/03/05 07:41:33;;;;;;;48.65;20.75;;;5.00;65.30;;;;;;5068753;28;20021;-62
2023/03/05 07:43:58;;;;;;;54.42;21.02;;;5.00;65.30;;;;;;5069282;28;20119;-62
2023/03/05 07:46:29;;;;;;;55.13;21.38;;;5.00;65.00;;;;;;5070477;28;20025;-62
2023/03/05 07:48:55;;;;;;;54.42;21.38;;;5.00;65.00;;;;;;5072265;28;20517;-63
2023/03/05 07:51:22;;;;;;;50.35;22.52;;;5.10;64.90;;;;;;5068606;28;20409;-62
2023/03/05 07:53:49;;;;;;;62.08;24.02;;;5.10;65.60;;;;;;5064332;28;20048;-62
2023/03/05 07:56:27;;;;;;;45.25;20.65;;;5.10;65.60;;;;;;5062040;28;20062;-62
2023/03/05 07:58:53;;;;;;;39.35;18.45;;;5.10;65.40;;;;;;5066346;28;20040;-61
2023/03/05 08:01:19;;;;;;;54.33;20.40;;;5.10;65.20;;;;;;5060726;28;20036;-61
2023/03/05 08:03:44;;;;;;;42.78;18.80;;;5.10;65.10;;;;;;5064481;28;20099;-62
2023/03/05 08:06:11;;;;;;;53.60;21.75;;;5.10;65.40;;;;;;5064662;28;20020;-62
2023/03/05 08:08:37;;;;;;;44.33;20.63;;;5.10;65.80;;;;;;5058345;28;20025;-61
2023/03/05 08:11:08;;;;;;;51.03;23.17;;;5.20;65.30;;;;;;5070498;28;20112;-62
2023/03/05 08:13:34;;;;;;;51.55;20.90;;;5.20;65.10;;;;;;5062720;28;20120;-61
2023/03/05 08:16:04;;;;;;;48.22;19.33;;;5.20;65.20;;;;;;5067800;28;22762;-62
2023/03/05 08:18:30;;;;;;;48.72;18.30;;;5.20;65.50;;;;;;5073756;28;20403;-61
2023/03/05 08:20:56;;;;;;;47.10;19.67;;;5.30;65.20;;;;;;5078391;28;20039;-63
2023/03/05 08:23:22;;;;;;;48.33;20.95;;;5.30;65.20;;;;;;5069290;28;20021;-63
2023/03/05 08:25:48;;;;;;;46.17;20.20;;;5.30;65.40;;;;;;5066505;28;20032;-64
2023/03/05 08:28:15;;;;;;;47.17;19.25;;;5.30;65.10;;;;;;5072280;28;20602;-64
2023/03/05 08:30:41;;;;;;;41.28;17.60;;;5.30;64.90;;;;;;5062625;28;20116;-62
2023/03/05 08:33:06;;;;;;;42.97;19.30;;;5.30;64.80;;;;;;5067381;28;20121;-64
2023/03/05 08:35:32;;;;;;;49.45;20.20;;;5.40;64.90;;;;;;5070545;28;20033;-63
2023/03/05 08:37:58;;;;;;;41.60;18.05;;;5.40;65.30;;;;;;5061266;28;20034;-62
2023/03/05 08:40:23;;;;;;;45.95;18.83;;;5.40;65.00;;;;;;5068374;28;20024;-62
2023/03/05 08:42:50;;;;;;;38.80;17.77;;;5.40;64.90;;;;;;5058101;28;20086;-65
2023/03/05 08:45:17;;;;;;;38.70;18.92;;;5.40;64.90;;;;;;5070092;28;20051;-65
2023/03/05 08:47:43;;;;;;;38.10;18.20;;;5.50;64.80;;;;;;5067822;28;20021;-63
2023/03/05 08:50:09;;;;;;;35.83;17.13;;;5.50;64.90;;;;;;5063189;28;20993;-62
2023/03/05 08:52:35;;;;;;;38.15;18.13;;;5.50;64.90;;;;;;5062324;28;20041;-64
2023/03/05 08:55:01;;;;;;;39.05;17.75;;;5.60;64.90;;;;;;5064800;28;20047;-63
2023/03/05 08:57:26;;;;;;;40.78;17.08;;;5.60;65.00;;;;;;5064810;28;20032;-63
2023/03/05 08:59:52;;;;;;;45.13;18.52;;;5.60;65.10;;;;;;5070455;28;20020;-64
2023/03/05 09:02:17;;;;;;;40.88;19.70;;;5.70;65.10;;;;;;5065199;28;20024;-63
2023/03/05 09:04:43;;;;;;;41.97;19.30;;;5.80;64.80;;;;;;5069957;28;20027;-64
2023/03/05 09:07:09;;;;;;;38.75;18.70;;;5.80;64.60;;;;;;5072588;28;20036;-62
2023/03/05 09:09:36;;;;;;;37.15;17.75;;;5.80;64.60;;;;;;5061067;28;20024;-62
2023/03/05 09:12:01;;;;;;;36.13;17.15;;;5.80;64.40;;;;;;5067907;28;20024;-62
2023/03/05 09:14:27;;;;;;;39.35;18.48;;;5.80;64.30;;;;;;5061278;28;20044;-63
2023/03/05 09:16:54;;;;;;;37.67;18.05;;;5.90;64.40;;;;;;5062609;28;20033;-62
2023/03/05 09:19:20;;;;;;;40.53;19.25;;;5.90;64.30;;;;;;5060623;28;20476;-64
2023/03/05 09:21:46;;;;;;;36.35;17.25;;;5.90;64.40;;;;;;5065227;28;20032;-64
2023/03/05 09:24:12;;;;;;;37.72;17.63;;;5.90;64.40;;;;;;5052580;28;20021;-62
2023/03/05 09:26:39;;;;;;;34.80;17.38;;;5.90;64.50;;;;;;5060204;28;20112;-62
2023/03/05 09:29:07;;;;;;;33.53;17.00;;;6.00;64.50;;;;;;5056404;28;20031;-64
2023/03/05 09:31:33;;;;;;;35.35;19.00;;;6.00;64.60;;;;;;5055267;28;20056;-64
2023/03/05 09:33:59;;;;;;;36.55;17.13;;;6.00;64.60;;;;;;5060820;28;20041;-64
2023/03/05 09:36:27;;;;;;;39.47;17.30;;;6.10;64.70;;;;;;5069774;28;20475;-62
2023/03/05 09:38:53;;;;;;;37.08;17.50;;;6.20;64.60;;;;;;5067582;28;20082;-62
2023/03/05 09:41:31;;;;;;;40.75;18.70;;;6.30;64.20;;;;;;5059282;28;20037;-64
2023/03/05 09:44:30;;;;;;;38.08;17.27;;;6.30;63.90;;;;;;5064736;28;20055;-62
2023/03/05 09:47:15;;;;;;;36.30;16.67;;;6.30;63.50;;;;;;5052444;28;20033;-62
2023/03/05 09:50:05;;;;;;;36.92;16.35;;;6.30;63.20;;;;;;5061250;28;20021;-62
2023/03/05 09:52:54;;;;;;;34.15;16.05;;;6.30;63.10;;;;;;5061901;28;20029;-62
2023/03/05 09:55:41;;;;;;;30.88;15.20;;;6.30;63.10;;;;;;5064705;28;20025;-62
2023/03/05 09:58:13;;;;;;;36.10;16.67;;;6.30;63.10;;;;;;5063191;28;20028;-62
2023/03/05 10:00:46;;;;;;;37.15;16.55;;;6.30;62.90;;;;;;5055285;28;20076;-63
2023/03/05 10:03:21;;;;;;;35.13;15.95;;;6.30;62.90;;;;;;5059914;28;20021;-62
2023/03/05 10:06:05;;;;;;;38.47;17.45;;;6.30;62.80;;;;;;5052269;28;20107;-62
2023/03/05 10:08:51;;;;;;;25.25;11.00;;;6.30;62.80;;;;;;5064553;28;20016;-62
2023/03/05 10:11:50;;;;;;;31.15;14.48;;;6.30;63.00;;;;;;5059861;28;20016;-61
2023/03/05 10:14:32;;;;;;;33.92;14.55;;;6.30;62.90;;;;;;5056575;28;20043;-62
2023/03/05 10:17:06;;;;;;;31.08;13.90;;;6.40;62.90;;;;;;5055713;28;20029;-62
2023/03/05 10:19:45;;;;;;;31.55;14.23;;;6.50;63.00;;;;;;5067307;28;20049;-62
2023/03/05 10:22:23;;;;;;;29.58;13.52;;;6.50;62.80;;;;;;5061293;28;20022;-63
2023/03/05 10:25:23;;;;;;;33.55;14.10;;;6.50;62.80;;;;;;5057420;28;20035;-63
2023/03/05 10:27:50;;;;;;;25.73;13.18;;;6.60;62.70;;;;;;5059339;28;20083;-62
2023/03/05 10:30:34;;;;;;;31.13;14.07;;;6.60;62.80;;;;;;5058821;28;20067;-63
2023/03/05 10:33:40;;;;;;;29.05;13.70;;;6.70;62.50;;;;;;5057991;28;20048;-61
2023/03/05 10:36:24;;;;;;;31.27;14.40;;;6.80;62.30;;;;;;5036386;28;20071;-62
2023/03/05 10:39:03;;;;;;;30.77;13.20;;;6.80;62.30;;;;;;5058647;28;20340;-61
2023/03/05 10:41:51;;;;;;;29.52;13.93;;;6.80;62.20;;;;;;5061667;28;20045;-62
2023/03/05 10:44:43;;;;;;;26.63;12.93;;;6.90;62.30;;;;;;5064886;28;20025;-63
2023/03/05 10:47:24;;;;;;;32.22;13.77;;;6.90;61.70;;;;;;5055372;28;20021;-62
2023/03/05 10:49:52;;;;;;;30.67;14.38;;;7.00;61.70;;;;;;5061964;28;20029;-62
2023/03/05 10:52:47;;;;;;;26.13;12.85;;;7.10;61.90;;;;;;5064154;28;20502;-62
2023/03/05 10:55:19;;;;;;;29.58;13.15;;;7.10;60.90;;;;;;5060588;28;20037;-61
2023/03/05 10:57:46;;;;;;;31.15;13.68;;;7.20;60.90;;;;;;5060345;28;20031;-62
2023/03/05 11:00:24;;;;;;;30.08;13.98;;;7.10;60.30;;;;;;5066170;28;20107;-62
2023/03/05 11:03:08;;;;;;;26.08;12.57;;;7.10;60.60;;;;;;5059756;28;20116;-64
2023/03/05 11:06:12;;;;;;;22.70;9.30;;;7.10;60.20;;;;;;5064466;28;20024;-63
2023/03/05 11:08:38;;;;;;;25.30;12.23;;;7.10;59.90;;;;;;5035626;28;20069;-61
2023/03/05 11:11:17;;;;;;;26.85;12.65;;;7.10;60.20;;;;;;5023361;28;20089;-62
2023/03/05 11:13:52;;;;;;;26.92;11.13;;;7.10;59.80;;;;;;5039026;28;20038;-63
2023/03/05 11:16:24;;;;;;;26.90;11.68;;;7.00;60.00;;;;;;5035480;28;20028;-62
2023/03/05 11:18:51;;;;;;;29.08;12.38;;;7.00;60.10;;;;;;5041734;28;20072;-62
2023/03/05 11:21:26;;;;;;;28.13;12.30;;;7.00;60.30;;;;;;5039379;28;20030;-62
2023/03/05 11:24:15;;;;;;;24.50;11.90;;;7.00;60.20;;;;;;5039653;28;20048;-62
2023/03/05 11:26:52;;;;;;;56.05;20.02;;;6.90;60.00;;;;;;5039529;28;20063;-62
2023/03/05 11:29:47;;;;;;;36.83;16.33;;;6.90;60.20;;;;;;5041677;28;20036;-61
2023/03/05 11:32:23;;;;;;;28.20;12.80;;;6.90;60.10;;;;;;5035680;28;20073;-61
2023/03/05 11:34:49;;;;;;;25.92;12.27;;;7.00;60.40;;;;;;5039686;28;20029;-62
2023/03/05 11:37:26;;;;;;;27.00;12.65;;;7.00;60.40;;;;;;5036702;28;20065;-62
2023/03/05 11:40:21;;;;;;;27.90;13.10;;;7.10;60.20;;;;;;5038234;28;20160;-62
2023/03/05 11:42:55;;;;;;;23.35;11.80;;;7.10;60.00;;;;;;5041688;28;20115;-63
2023/03/05 11:45:24;;;;;;;27.98;12.48;;;7.10;59.90;;;;;;5057951;28;20025;-61
2023/03/05 11:47:54;;;;;;;30.58;12.35;;;7.10;60.00;;;;;;5061046;28;20021;-61
2023/03/05 11:50:31;;;;;;;24.75;11.88;;;7.10;59.90;;;;;;5056835;28;20029;-63
2023/03/05 11:53:21;;;;;;;22.98;11.88;;;7.10;59.40;;;;;;5063333;28;20062;-61
2023/03/05 11:55:46;;;;;;;27.95;11.73;;;7.10;59.20;;;;;;5062283;28;20053;-62
2023/03/05 11:58:24;;;;;;;25.35;12.52;;;7.20;59.30;;;;;;5066760;28;20040;-62
2023/03/05 12:00:50;;;;;;;22.60;11.25;;;7.10;59.30;;;;;;5067085;28;20064;-61
2023/03/05 12:03:20;;;;;;;30.27;13.35;;;7.10;59.50;;;;;;5060710;28;20510;-62
2023/03/05 12:05:56;;;;;;;30.92;13.07;;;7.10;59.50;;;;;;5097694;28;20549;-62
2023/03/05 12:08:28;;;;;;;20.77;12.18;;;7.10;59.00;;;;;;5059018;28;20021;-62
2023/03/05 12:10:55;;;;;;;24.42;11.63;;;7.10;59.30;;;;;;5068568;28;20031;-62
2023/03/05 12:13:36;;;;;;;29.75;13.32;;;7.10;59.30;;;;;;5061644;28;20372;-62
2023/03/05 12:16:17;;;;;;;24.35;10.73;;;7.10;59.20;;;;;;5078949;28;20017;-61
2023/03/05 12:18:56;;;;;;;27.75;13.40;;;7.10;59.30;;;;;;5061032;28;20036;-62
2023/03/05 12:21:27;;;;;;;26.15;12.77;;;7.10;59.10;;;;;;5061492;28;20032;-62
2023/03/05 12:24:00;;;;;;;22.48;12.25;;;7.10;59.00;;;;;;5058983;28;20025;-62
2023/03/05 12:27:01;;;;;;;23.60;11.82;;;7.10;59.10;;;;;;5065620;28;20048;-62
2023/03/05 12:29:48;;;;;;;25.38;12.15;;;7.10;59.30;;;;;;5054989;28;20052;-62
2023/03/05 12:32:30;;;;;;;21.35;11.65;;;7.20;59.20;;;;;;5061656;28;20076;-62
2023/03/05 12:35:05;;;;;;;23.52;12.75;;;7.20;58.80;;;;;;5056490;28;20025;-62
2023/03/05 12:37:30;;;;;;;27.42;12.95;;;7.20;58.90;;;;;;5056708;28;20515;-63
2023/03/05 12:40:03;;;;;;;22.95;11.95;;;7.20;58.90;;;;;;5057742;28;20033;-63
2023/03/05 12:42:29;;;;;;;28.08;13.98;;;7.20;58.60;;;;;;5058179;28;20084;-61
2023/03/05 12:45:14;;;;;;;24.67;12.07;;;7.10;58.30;;;;;;5061286;28;20076;-62
2023/03/05 12:47:55;;;;;;;23.67;11.98;;;7.10;57.80;;;;;;5049472;28;20033;-61